createdAt,value
2023-11-20T00:04:22.331Z,92.10
2023-11-20T00:10:05.127Z,91.80
2023-11-20T00:15:29.768Z,91.80
2023-11-20T00:20:53.307Z,91.80
2023-11-20T00:26:16.927Z,92.10
2023-11-20T00:31:50.452Z,92.20
2023-11-20T00:37:16.152Z,92.20
2023-11-20T00:42:41.033Z,92.00
2023-11-20T00:48:06.728Z,91.90
2023-11-20T00:53:30.075Z,91.70
2023-11-20T00:58:53.579Z,92.00
2023-11-20T01:04:18.398Z,92.40
2023-11-20T01:09:42.716Z,92.60
2023-11-20T01:15:08.806Z,92.50
2023-11-20T01:20:33.946Z,92.30
2023-11-20T01:25:57.532Z,92.00
2023-11-20T01:31:21.109Z,92.00
2023-11-20T01:36:46.813Z,91.90
2023-11-20T01:42:10.521Z,91.80
2023-11-20T01:47:36.609Z,91.60
2023-11-20T01:53:04.724Z,91.50
2023-11-20T01:58:28.737Z,91.50
2023-11-20T02:03:59.777Z,91.50
2023-11-20T02:09:24.414Z,91.50
2023-11-20T02:14:47.954Z,91.60
2023-11-20T02:20:11.887Z,91.60
2023-11-20T02:25:36.722Z,91.60
2023-11-20T02:31:01.667Z,91.90
2023-11-20T02:36:26.235Z,91.80
2023-11-20T02:41:49.810Z,91.10
2023-11-20T02:47:14.611Z,91.20
2023-11-20T02:52:37.937Z,91.30
2023-11-20T02:58:02.572Z,91.40
2023-11-20T03:03:27.529Z,91.50
2023-11-20T03:08:51.011Z,91.70
2023-11-20T03:14:14.624Z,91.70
2023-11-20T03:19:39.424Z,91.60
2023-11-20T03:25:03.342Z,91.50
2023-11-20T03:30:27.039Z,91.30
2023-11-20T03:35:51.938Z,91.30
2023-11-20T03:41:17.187Z,91.60
2023-11-20T03:46:40.458Z,91.30
2023-11-20T03:52:05.730Z,91.70
2023-11-20T03:57:29.067Z,92.00
2023-11-20T04:02:52.725Z,92.40
2023-11-20T04:08:17.656Z,92.00
2023-11-20T04:13:41.233Z,92.00
2023-11-20T04:19:04.981Z,92.10
2023-11-20T04:24:30.575Z,92.20
2023-11-20T04:29:54.520Z,92.30
2023-11-20T04:35:18.197Z,92.20
2023-11-20T04:40:43.438Z,91.90
2023-11-20T04:46:09.814Z,91.80
2023-11-20T04:51:33.525Z,91.90
2023-11-20T04:56:58.172Z,91.80
2023-11-20T05:02:21.689Z,91.80
2023-11-20T05:07:45.288Z,91.90
2023-11-20T05:13:10.252Z,92.30
2023-11-20T05:18:33.689Z,92.40
2023-11-20T05:23:57.227Z,92.20
2023-11-20T05:29:22.213Z,92.20
2023-11-20T05:34:45.759Z,91.90
2023-11-20T05:40:10.718Z,91.90
2023-11-20T05:45:35.388Z,91.80
2023-11-20T05:50:58.768Z,91.80
2023-11-20T05:56:22.275Z,91.70
2023-11-20T06:01:47.425Z,91.80
2023-11-20T06:13:00.081Z,92.10
2023-11-20T06:18:25.700Z,92.10
2023-11-20T06:23:55.284Z,92.30
2023-11-20T06:29:19.178Z,92.80
2023-11-20T06:34:45.047Z,92.50
2023-11-20T06:47:57.444Z,92.60
2023-11-20T06:54:53.880Z,92.40
2023-11-20T07:14:17.230Z,91.90
2023-11-20T07:34:04.432Z,92.20
2023-11-20T07:39:51.003Z,91.90
2023-11-20T07:45:15.605Z,92.00
2023-11-20T07:50:47.522Z,92.50
2023-11-20T07:56:11.770Z,92.40
2023-11-20T08:01:36.074Z,92.30
2023-11-20T08:07:14.482Z,92.20
2023-11-20T08:13:15.581Z,92.70
2023-11-20T08:18:42.825Z,92.50
2023-11-20T08:24:10.340Z,92.20
2023-11-20T08:29:33.637Z,92.20
2023-11-20T08:34:57.920Z,92.20
2023-11-20T08:40:28.205Z,92.30
2023-11-20T08:46:09.158Z,92.20
2023-11-20T08:51:49.241Z,92.50
2023-11-20T08:57:26.043Z,92.60
2023-11-20T09:02:51.398Z,92.90
2023-11-20T09:08:19.586Z,93.40
2023-11-20T09:13:47.730Z,92.80
2023-11-20T09:19:14.391Z,92.70
2023-11-20T09:24:46.929Z,92.40
2023-11-20T09:30:36.897Z,92.30
2023-11-20T09:36:15.425Z,92.80
2023-11-20T09:41:43.226Z,92.40
2023-11-20T09:47:11.268Z,92.80
2023-11-20T09:52:40.332Z,92.90
2023-11-20T09:58:09.263Z,92.60
2023-11-20T10:03:41.767Z,92.90
2023-11-20T10:09:38.011Z,93.10
2023-11-20T10:15:02.393Z,92.90
2023-11-20T10:20:54.520Z,92.50
2023-11-20T10:26:26.433Z,93.20
2023-11-20T10:31:55.638Z,93.10
2023-11-20T10:37:59.321Z,92.70
2023-11-20T10:43:35.931Z,93.00
2023-11-20T10:49:11.476Z,92.80
2023-11-20T10:54:52.250Z,93.20
2023-11-20T11:00:19.065Z,93.00
2023-11-20T11:05:49.743Z,92.50
2023-11-20T11:12:02.483Z,92.70
2023-11-20T11:17:57.296Z,93.40
2023-11-20T11:23:49.545Z,93.50
2023-11-20T11:29:28.802Z,93.10
2023-11-20T11:35:31.639Z,92.30
2023-11-20T11:41:27.613Z,92.40
2023-11-20T11:46:58.882Z,92.60
2023-11-20T11:52:28.678Z,91.90
2023-11-20T11:58:01.053Z,91.70
2023-11-20T12:03:43.565Z,91.70
2023-11-20T12:09:10.729Z,91.60
2023-11-20T12:14:40.933Z,91.80
2023-11-20T12:20:10.483Z,91.50
2023-11-20T12:26:18.502Z,91.80
2023-11-20T12:31:57.717Z,91.70
2023-11-20T12:37:45.139Z,91.90
2023-11-20T12:43:11.046Z,92.00
2023-11-20T12:49:01.650Z,92.00
2023-11-20T12:54:32.198Z,92.10
2023-11-20T12:59:56.430Z,92.20
2023-11-20T13:05:25.405Z,92.20
2023-11-20T13:10:56.345Z,92.30
2023-11-20T13:16:27.495Z,92.40
2023-11-20T13:22:02.646Z,92.30
2023-11-20T13:27:28.019Z,92.40
2023-11-20T13:32:55.753Z,92.60
2023-11-20T13:38:20.288Z,93.00
2023-11-20T13:43:46.023Z,93.80
2023-11-20T13:49:09.783Z,93.60
2023-11-20T13:54:35.404Z,92.60
2023-11-20T14:00:09.720Z,92.30
2023-11-20T14:05:43.714Z,92.00
2023-11-20T14:11:10.715Z,92.20
2023-11-20T14:16:43.011Z,92.00
2023-11-20T14:22:08.602Z,92.10
2023-11-20T14:27:31.815Z,92.70
2023-11-20T14:32:58.164Z,92.80
2023-11-20T14:38:43.988Z,92.60
2023-11-20T14:44:08.985Z,92.30
2023-11-20T14:49:40.489Z,92.50
2023-11-20T14:55:08.843Z,92.20
2023-11-20T15:00:35.442Z,92.50
2023-11-20T15:06:00.805Z,92.00
2023-11-20T15:11:26.987Z,91.80
2023-11-20T15:16:50.278Z,92.60
2023-11-20T15:22:15.159Z,92.40
2023-11-20T15:27:45.018Z,92.00
2023-11-20T15:33:08.528Z,92.10
2023-11-20T15:38:33.373Z,91.70
2023-11-20T15:43:56.698Z,91.40
2023-11-20T15:49:20.014Z,91.90
2023-11-20T15:54:44.883Z,91.90
2023-11-20T16:00:10.412Z,91.60
2023-11-20T16:05:36.252Z,92.10
2023-11-20T16:11:00.968Z,92.20
2023-11-20T16:16:24.283Z,92.00
2023-11-20T16:21:47.928Z,91.40
2023-11-20T16:27:13.461Z,91.40
2023-11-20T16:32:36.585Z,91.60
2023-11-20T16:37:59.770Z,91.50
2023-11-20T16:43:24.551Z,91.20
2023-11-20T16:48:47.686Z,91.20
2023-11-20T16:54:10.776Z,90.90
2023-11-20T16:59:35.384Z,90.70
2023-11-20T17:05:00.357Z,90.80
2023-11-20T17:10:27.089Z,90.80
2023-11-20T17:15:51.778Z,90.90
2023-11-20T17:21:17.706Z,91.00
2023-11-20T17:26:41.976Z,91.40
2023-11-20T17:32:07.668Z,91.30
2023-11-20T17:37:30.934Z,91.20
2023-11-20T17:42:54.356Z,91.00
2023-11-20T17:48:19.016Z,91.30
2023-11-20T17:53:42.258Z,90.90
2023-11-20T17:59:08.714Z,90.50
2023-11-20T18:04:36.370Z,90.60
2023-11-20T18:10:00.260Z,90.60
2023-11-20T18:15:25.310Z,90.70
2023-11-20T18:20:50.260Z,91.20
2023-11-20T18:26:13.325Z,91.00
2023-11-20T18:31:36.459Z,91.00
2023-11-20T18:37:01.512Z,91.50
2023-11-20T18:42:25.018Z,91.60
2023-11-20T18:47:48.483Z,90.80
2023-11-20T18:53:13.200Z,90.90
2023-11-20T18:58:36.573Z,90.90
2023-11-20T19:03:59.754Z,91.10
2023-11-20T19:09:24.883Z,90.90
2023-11-20T19:14:49.346Z,90.90
2023-11-20T19:20:13.637Z,90.90
2023-11-20T19:25:39.017Z,90.70
2023-11-20T19:31:02.159Z,90.90
2023-11-20T19:36:28.973Z,91.50
2023-11-20T19:41:53.383Z,91.40
2023-11-20T19:47:16.720Z,91.30
2023-11-20T19:52:39.925Z,91.10
2023-11-20T19:58:04.611Z,91.10
2023-11-20T20:03:27.919Z,90.90
2023-11-20T20:08:51.154Z,91.10
2023-11-20T20:14:16.023Z,91.00
2023-11-20T20:19:39.252Z,90.90
2023-11-20T20:25:02.968Z,91.00
2023-11-20T20:30:28.138Z,90.90
2023-11-20T20:35:51.370Z,90.50
2023-11-20T20:41:14.689Z,90.40
2023-11-20T20:46:39.396Z,90.40
2023-11-20T20:52:03.231Z,90.20
2023-11-20T20:57:26.882Z,90.00
2023-11-20T21:02:51.768Z,90.00
2023-11-20T21:08:15.118Z,90.00
2023-11-20T21:13:38.801Z,89.60
2023-11-20T21:19:03.680Z,90.20
2023-11-20T21:24:26.987Z,90.30
2023-11-20T21:29:50.129Z,90.70
2023-11-20T21:35:14.646Z,90.60
2023-11-20T21:40:37.617Z,90.70
2023-11-20T21:46:00.844Z,90.80
2023-11-20T21:51:25.411Z,90.70
2023-11-20T21:56:48.747Z,90.50
2023-11-20T22:02:12.214Z,90.00
2023-11-20T22:07:36.906Z,89.50
2023-11-20T22:12:59.954Z,90.10
2023-11-20T22:18:23.442Z,89.60
2023-11-20T22:23:48.233Z,89.20
2023-11-20T22:29:11.211Z,89.30
2023-11-20T22:34:35.621Z,88.60
2023-11-20T22:40:00.474Z,88.90
2023-11-20T22:45:23.784Z,88.90
2023-11-20T22:50:46.873Z,88.60
2023-11-20T22:56:11.900Z,88.50
2023-11-20T23:01:35.207Z,88.10
2023-11-20T23:06:58.584Z,87.90
2023-11-20T23:12:23.319Z,88.50
2023-11-20T23:17:46.769Z,88.20
2023-11-20T23:23:10.283Z,88.30
2023-11-20T23:28:38.344Z,88.30
2023-11-20T23:34:01.594Z,88.80
2023-11-20T23:39:24.849Z,87.90
2023-11-20T23:44:49.549Z,88.40
2023-11-20T23:50:13.015Z,88.90
2023-11-20T23:55:36.209Z,88.40
